sensor_id;sensor_type;location;lat;lon;timestamp;P1;durP1;ratioP1;P2;durP2;ratioP2
56997;SDS011;42890;44.244;22.530;2022-10-04T00:02:19;2.45;;;1.60;;
56997;SDS011;42890;44.244;22.530;2022-10-04T00:04:47;6.35;;;2.20;;
56997;SDS011;42890;44.244;22.530;2022-10-04T00:07:17;4.95;;;1.92;;
56997;SDS011;42890;44.244;22.530;2022-10-04T00:09:46;4.63;;;1.80;;
56997;SDS011;42890;44.244;22.530;2022-10-04T00:12:18;3.88;;;2.10;;
56997;SDS011;42890;44.244;22.530;2022-10-04T00:14:45;6.15;;;1.92;;
56997;SDS011;42890;44.244;22.530;2022-10-04T00:17:12;10.27;;;2.15;;
56997;SDS011;42890;44.244;22.530;2022-10-04T00:19:46;8.77;;;2.42;;
56997;SDS011;42890;44.244;22.530;2022-10-04T00:22:16;6.30;;;2.00;;
56997;SDS011;42890;44.244;22.530;2022-10-04T00:27:27;3.63;;;1.80;;
56997;SDS011;42890;44.244;22.530;2022-10-04T00:32:30;4.47;;;2.00;;
56997;SDS011;42890;44.244;22.530;2022-10-04T00:34:57;6.75;;;1.92;;
56997;SDS011;42890;44.244;22.530;2022-10-04T00:37:24;6.85;;;2.35;;
56997;SDS011;42890;44.244;22.530;2022-10-04T00:40:10;5.32;;;2.75;;
56997;SDS011;42890;44.244;22.530;2022-10-04T00:42:44;3.53;;;2.25;;
56997;SDS011;42890;44.244;22.530;2022-10-04T00:45:12;3.13;;;2.00;;
56997;SDS011;42890;44.244;22.530;2022-10-04T00:50:14;4.35;;;1.83;;
56997;SDS011;42890;44.244;22.530;2022-10-04T00:52:44;6.80;;;2.50;;
56997;SDS011;42890;44.244;22.530;2022-10-04T00:55:21;3.38;;;2.30;;
56997;SDS011;42890;44.244;22.530;2022-10-04T00:57:49;9.32;;;2.85;;
56997;SDS011;42890;44.244;22.530;2022-10-04T01:00:16;4.63;;;2.10;;
56997;SDS011;42890;44.244;22.530;2022-10-04T01:05:33;3.47;;;2.38;;
56997;SDS011;42890;44.244;22.530;2022-10-04T01:08:15;5.75;;;2.47;;
56997;SDS011;42890;44.244;22.530;2022-10-04T01:10:46;4.85;;;2.05;;
56997;SDS011;42890;44.244;22.530;2022-10-04T01:13:22;27.67;;;2.40;;
56997;SDS011;42890;44.244;22.530;2022-10-04T01:15:55;5.68;;;2.00;;
56997;SDS011;42890;44.244;22.530;2022-10-04T01:23:41;2.35;;;2.00;;
56997;SDS011;42890;44.244;22.530;2022-10-04T01:28:51;7.22;;;2.50;;
56997;SDS011;42890;44.244;22.530;2022-10-04T01:31:17;2.83;;;2.22;;
56997;SDS011;42890;44.244;22.530;2022-10-04T01:33:44;3.83;;;1.70;;
56997;SDS011;42890;44.244;22.530;2022-10-04T01:36:10;7.88;;;2.10;;
56997;SDS011;42890;44.244;22.530;2022-10-04T01:38:36;8.68;;;2.15;;
56997;SDS011;42890;44.244;22.530;2022-10-04T01:41:02;6.90;;;2.33;;
56997;SDS011;42890;44.244;22.530;2022-10-04T01:43:31;6.00;;;2.63;;
56997;SDS011;42890;44.244;22.530;2022-10-04T01:46:12;10.05;;;2.70;;
56997;SDS011;42890;44.244;22.530;2022-10-04T01:48:39;4.20;;;2.30;;
56997;SDS011;42890;44.244;22.530;2022-10-04T01:51:10;4.50;;;2.30;;
56997;SDS011;42890;44.244;22.530;2022-10-04T01:53:53;4.13;;;2.42;;
56997;SDS011;42890;44.244;22.530;2022-10-04T01:56:20;5.65;;;2.42;;
56997;SDS011;42890;44.244;22.530;2022-10-04T01:58:51;3.80;;;2.50;;
56997;SDS011;42890;44.244;22.530;2022-10-04T02:03:56;3.65;;;2.38;;
56997;SDS011;42890;44.244;22.530;2022-10-04T02:06:24;4.28;;;2.35;;
56997;SDS011;42890;44.244;22.530;2022-10-04T02:08:50;7.38;;;2.72;;
56997;SDS011;42890;44.244;22.530;2022-10-04T02:11:21;4.93;;;2.30;;
56997;SDS011;42890;44.244;22.530;2022-10-04T02:13:50;8.65;;;3.00;;
56997;SDS011;42890;44.244;22.530;2022-10-04T02:16:16;7.25;;;3.03;;
56997;SDS011;42890;44.244;22.530;2022-10-04T02:18:43;7.95;;;5.50;;
56997;SDS011;42890;44.244;22.530;2022-10-04T02:21:10;9.93;;;6.95;;
56997;SDS011;42890;44.244;22.530;2022-10-04T02:23:37;10.93;;;4.53;;
56997;SDS011;42890;44.244;22.530;2022-10-04T02:26:04;7.70;;;3.40;;
56997;SDS011;42890;44.244;22.530;2022-10-04T02:28:31;11.25;;;4.18;;
56997;SDS011;42890;44.244;22.530;2022-10-04T02:30:57;7.55;;;3.20;;
56997;SDS011;42890;44.244;22.530;2022-10-04T02:33:43;4.88;;;2.75;;
56997;SDS011;42890;44.244;22.530;2022-10-04T02:36:10;5.43;;;2.83;;
56997;SDS011;42890;44.244;22.530;2022-10-04T02:41:21;6.93;;;2.90;;
56997;SDS011;42890;44.244;22.530;2022-10-04T02:43:50;3.67;;;2.83;;
56997;SDS011;42890;44.244;22.530;2022-10-04T02:46:23;8.05;;;3.05;;
56997;SDS011;42890;44.244;22.530;2022-10-04T02:48:56;6.35;;;3.03;;
56997;SDS011;42890;44.244;22.530;2022-10-04T02:51:30;6.30;;;2.70;;
56997;SDS011;42890;44.244;22.530;2022-10-04T02:56:42;3.50;;;3.05;;
56997;SDS011;42890;44.244;22.530;2022-10-04T02:59:14;2.50;;;2.30;;
56997;SDS011;42890;44.244;22.530;2022-10-04T03:04:16;5.10;;;2.97;;
56997;SDS011;42890;44.244;22.530;2022-10-04T03:06:45;4.70;;;2.67;;
56997;SDS011;42890;44.244;22.530;2022-10-04T03:09:11;4.03;;;2.60;;
56997;SDS011;42890;44.244;22.530;2022-10-04T03:11:38;2.97;;;2.20;;
56997;SDS011;42890;44.244;22.530;2022-10-04T03:14:07;4.28;;;2.60;;
56997;SDS011;42890;44.244;22.530;2022-10-04T03:16:37;4.25;;;2.55;;
56997;SDS011;42890;44.244;22.530;2022-10-04T03:19:04;5.00;;;2.88;;
56997;SDS011;42890;44.244;22.530;2022-10-04T03:21:32;5.72;;;2.97;;
56997;SDS011;42890;44.244;22.530;2022-10-04T03:23:59;5.88;;;2.50;;
56997;SDS011;42890;44.244;22.530;2022-10-04T03:26:27;4.60;;;2.55;;
56997;SDS011;42890;44.244;22.530;2022-10-04T03:28:55;6.38;;;2.50;;
56997;SDS011;42890;44.244;22.530;2022-10-04T03:31:22;4.65;;;2.70;;
56997;SDS011;42890;44.244;22.530;2022-10-04T03:33:53;6.07;;;2.85;;
56997;SDS011;42890;44.244;22.530;2022-10-04T03:36:19;4.60;;;2.55;;
56997;SDS011;42890;44.244;22.530;2022-10-04T03:38:46;3.17;;;2.55;;
56997;SDS011;42890;44.244;22.530;2022-10-04T03:41:13;3.10;;;2.50;;
56997;SDS011;42890;44.244;22.530;2022-10-04T03:43:47;4.05;;;2.63;;
56997;SDS011;42890;44.244;22.530;2022-10-04T03:46:14;5.70;;;2.80;;
56997;SDS011;42890;44.244;22.530;2022-10-04T03:48:49;9.30;;;2.67;;
56997;SDS011;42890;44.244;22.530;2022-10-04T03:51:16;6.88;;;2.17;;
56997;SDS011;42890;44.244;22.530;2022-10-04T03:53:44;3.40;;;2.88;;
56997;SDS011;42890;44.244;22.530;2022-10-04T03:56:12;7.50;;;3.30;;
56997;SDS011;42890;44.244;22.530;2022-10-04T03:58:40;5.60;;;3.40;;
56997;SDS011;42890;44.244;22.530;2022-10-04T04:04:06;7.55;;;4.32;;
56997;SDS011;42890;44.244;22.530;2022-10-04T04:06:42;8.77;;;3.95;;
56997;SDS011;42890;44.244;22.530;2022-10-04T04:09:19;8.20;;;6.32;;
56997;SDS011;42890;44.244;22.530;2022-10-04T04:11:47;10.15;;;6.30;;
56997;SDS011;42890;44.244;22.530;2022-10-04T04:14:18;16.65;;;11.52;;
56997;SDS011;42890;44.244;22.530;2022-10-04T04:16:46;9.35;;;7.80;;
56997;SDS011;42890;44.244;22.530;2022-10-04T04:19:13;9.63;;;6.43;;
56997;SDS011;42890;44.244;22.530;2022-10-04T04:21:41;9.90;;;7.45;;
56997;SDS011;42890;44.244;22.530;2022-10-04T04:24:40;7.13;;;5.13;;
56997;SDS011;42890;44.244;22.530;2022-10-04T04:27:00;6.95;;;3.80;;
56997;SDS011;42890;44.244;22.530;2022-10-04T04:29:38;6.38;;;4.10;;
56997;SDS011;42890;44.244;22.530;2022-10-04T04:32:14;10.20;;;5.65;;
56997;SDS011;42890;44.244;22.530;2022-10-04T04:37:08;5.97;;;3.20;;
56997;SDS011;42890;44.244;22.530;2022-10-04T04:39:35;4.88;;;2.53;;
56997;SDS011;42890;44.244;22.530;2022-10-04T04:42:24;3.10;;;2.33;;
56997;SDS011;42890;44.244;22.530;2022-10-04T04:50:17;4.18;;;2.53;;
56997;SDS011;42890;44.244;22.530;2022-10-04T04:52:47;5.80;;;2.70;;
56997;SDS011;42890;44.244;22.530;2022-10-04T04:55:15;5.03;;;2.60;;
56997;SDS011;42890;44.244;22.530;2022-10-04T04:57:43;6.72;;;2.75;;
56997;SDS011;42890;44.244;22.530;2022-10-04T05:00:15;5.05;;;2.50;;
56997;SDS011;42890;44.244;22.530;2022-10-04T05:07:43;3.95;;;2.50;;
56997;SDS011;42890;44.244;22.530;2022-10-04T05:10:19;6.53;;;3.65;;
56997;SDS011;42890;44.244;22.530;2022-10-04T05:12:46;2.55;;;2.33;;
56997;SDS011;42890;44.244;22.530;2022-10-04T05:15:12;7.72;;;2.20;;
56997;SDS011;42890;44.244;22.530;2022-10-04T05:17:39;5.32;;;2.63;;
56997;SDS011;42890;44.244;22.530;2022-10-04T05:20:05;5.22;;;2.17;;
56997;SDS011;42890;44.244;22.530;2022-10-04T05:22:31;4.30;;;2.45;;
56997;SDS011;42890;44.244;22.530;2022-10-04T05:25:04;3.70;;;2.75;;
56997;SDS011;42890;44.244;22.530;2022-10-04T05:27:36;3.15;;;2.47;;
56997;SDS011;42890;44.244;22.530;2022-10-04T05:35:17;4.55;;;2.50;;
56997;SDS011;42890;44.244;22.530;2022-10-04T05:42:47;7.25;;;3.38;;
56997;SDS011;42890;44.244;22.530;2022-10-04T05:47:43;8.73;;;3.00;;
56997;SDS011;42890;44.244;22.530;2022-10-04T05:50:17;6.03;;;2.50;;
56997;SDS011;42890;44.244;22.530;2022-10-04T05:52:45;5.32;;;2.88;;
56997;SDS011;42890;44.244;22.530;2022-10-04T05:57:48;6.97;;;3.15;;
56997;SDS011;42890;44.244;22.530;2022-10-04T06:00:19;5.43;;;3.22;;
56997;SDS011;42890;44.244;22.530;2022-10-04T06:10:55;5.70;;;3.63;;
56997;SDS011;42890;44.244;22.530;2022-10-04T06:16:28;16.90;;;3.40;;
56997;SDS011;42890;44.244;22.530;2022-10-04T06:21:43;7.72;;;4.28;;
56997;SDS011;42890;44.244;22.530;2022-10-04T06:24:22;13.82;;;9.18;;
56997;SDS011;42890;44.244;22.530;2022-10-04T06:26:54;10.82;;;9.18;;
56997;SDS011;42890;44.244;22.530;2022-10-04T06:29:24;6.70;;;4.60;;
56997;SDS011;42890;44.244;22.530;2022-10-04T06:42:10;5.10;;;4.60;;
56997;SDS011;42890;44.244;22.530;2022-10-04T06:47:20;6.78;;;5.65;;
56997;SDS011;42890;44.244;22.530;2022-10-04T06:50:10;6.70;;;5.50;;
56997;SDS011;42890;44.244;22.530;2022-10-04T06:52:46;8.77;;;5.10;;
56997;SDS011;42890;44.244;22.530;2022-10-04T07:00:33;6.93;;;5.75;;
56997;SDS011;42890;44.244;22.530;2022-10-04T07:03:03;6.03;;;5.03;;
56997;SDS011;42890;44.244;22.530;2022-10-04T07:05:32;6.22;;;4.80;;
56997;SDS011;42890;44.244;22.530;2022-10-04T07:10:55;5.25;;;4.35;;
56997;SDS011;42890;44.244;22.530;2022-10-04T07:18:38;4.65;;;4.20;;
56997;SDS011;42890;44.244;22.530;2022-10-04T07:21:08;5.32;;;4.10;;
56997;SDS011;42890;44.244;22.530;2022-10-04T07:24:10;9.23;;;4.47;;
56997;SDS011;42890;44.244;22.530;2022-10-04T07:26:37;4.72;;;4.32;;
56997;SDS011;42890;44.244;22.530;2022-10-04T07:29:11;7.82;;;5.05;;
56997;SDS011;42890;44.244;22.530;2022-10-04T07:32:10;4.88;;;4.22;;
56997;SDS011;42890;44.244;22.530;2022-10-04T07:34:50;6.88;;;4.45;;
56997;SDS011;42890;44.244;22.530;2022-10-04T07:37:17;4.82;;;3.90;;
56997;SDS011;42890;44.244;22.530;2022-10-04T07:42:34;8.82;;;4.85;;
56997;SDS011;42890;44.244;22.530;2022-10-04T07:45:21;6.57;;;5.32;;
56997;SDS011;42890;44.244;22.530;2022-10-04T07:47:48;6.40;;;4.70;;
56997;SDS011;42890;44.244;22.530;2022-10-04T07:52:54;6.55;;;4.50;;
56997;SDS011;42890;44.244;22.530;2022-10-04T08:00:24;5.95;;;4.28;;
56997;SDS011;42890;44.244;22.530;2022-10-04T08:05:37;6.20;;;4.55;;
56997;SDS011;42890;44.244;22.530;2022-10-04T08:08:21;6.75;;;4.10;;
56997;SDS011;42890;44.244;22.530;2022-10-04T08:13:37;4.40;;;3.97;;
56997;SDS011;42890;44.244;22.530;2022-10-04T08:18:50;9.50;;;4.70;;
56997;SDS011;42890;44.244;22.530;2022-10-04T08:21:26;6.45;;;5.05;;
56997;SDS011;42890;44.244;22.530;2022-10-04T08:32:22;4.97;;;4.43;;
56997;SDS011;42890;44.244;22.530;2022-10-04T08:35:02;7.00;;;4.30;;
56997;SDS011;42890;44.244;22.530;2022-10-04T08:48:11;4.50;;;4.10;;
56997;SDS011;42890;44.244;22.530;2022-10-04T08:58:07;4.10;;;3.70;;
56997;SDS011;42890;44.244;22.530;2022-10-04T09:12:11;4.47;;;3.70;;
56997;SDS011;42890;44.244;22.530;2022-10-04T09:15:22;3.60;;;3.30;;
56997;SDS011;42890;44.244;22.530;2022-10-04T09:17:36;4.90;;;3.58;;
56997;SDS011;42890;44.244;22.530;2022-10-04T09:28:08;5.82;;;3.42;;
56997;SDS011;42890;44.244;22.530;2022-10-04T09:40:39;5.70;;;3.72;;
56997;SDS011;42890;44.244;22.530;2022-10-04T09:48:40;5.05;;;3.30;;
56997;SDS011;42890;44.244;22.530;2022-10-04T09:53:48;3.83;;;3.40;;
56997;SDS011;42890;44.244;22.530;2022-10-04T10:11:29;4.00;;;3.40;;
56997;SDS011;42890;44.244;22.530;2022-10-04T10:45:18;4.05;;;3.60;;
56997;SDS011;42890;44.244;22.530;2022-10-04T10:58:46;3.40;;;3.10;;
56997;SDS011;42890;44.244;22.530;2022-10-04T11:01:25;5.05;;;3.60;;
56997;SDS011;42890;44.244;22.530;2022-10-04T11:07:42;4.75;;;3.30;;
56997;SDS011;42890;44.244;22.530;2022-10-04T11:30:19;6.72;;;3.22;;
56997;SDS011;42890;44.244;22.530;2022-10-04T11:35:41;5.43;;;3.10;;
56997;SDS011;42890;44.244;22.530;2022-10-04T11:50:55;3.25;;;2.28;;
56997;SDS011;42890;44.244;22.530;2022-10-04T11:53:35;3.88;;;2.30;;
56997;SDS011;42890;44.244;22.530;2022-10-04T12:01:45;4.32;;;2.17;;
56997;SDS011;42890;44.244;22.530;2022-10-04T12:04:19;5.20;;;3.10;;
56997;SDS011;42890;44.244;22.530;2022-10-04T12:10:33;2.45;;;2.00;;
56997;SDS011;42890;44.244;22.530;2022-10-04T12:12:44;5.13;;;2.47;;
56997;SDS011;42890;44.244;22.530;2022-10-04T12:33:09;3.08;;;2.50;;
56997;SDS011;42890;44.244;22.530;2022-10-04T12:35:57;3.83;;;2.40;;
56997;SDS011;42890;44.244;22.530;2022-10-04T12:43:51;5.30;;;2.33;;
56997;SDS011;42890;44.244;22.530;2022-10-04T12:59:18;5.32;;;2.10;;
56997;SDS011;42890;44.244;22.530;2022-10-04T13:01:50;3.65;;;2.20;;
56997;SDS011;42890;44.244;22.530;2022-10-04T13:09:41;4.47;;;3.00;;
56997;SDS011;42890;44.244;22.530;2022-10-04T13:12:20;5.53;;;2.13;;
56997;SDS011;42890;44.244;22.530;2022-10-04T13:25:01;3.97;;;2.20;;
56997;SDS011;42890;44.244;22.530;2022-10-04T13:27:37;4.80;;;1.95;;
56997;SDS011;42890;44.244;22.530;2022-10-04T13:35:39;3.85;;;1.63;;
56997;SDS011;42890;44.244;22.530;2022-10-04T13:46:28;2.97;;;1.67;;
56997;SDS011;42890;44.244;22.530;2022-10-04T13:49:01;4.15;;;1.67;;
56997;SDS011;42890;44.244;22.530;2022-10-04T14:15:48;5.53;;;2.55;;
56997;SDS011;42890;44.244;22.530;2022-10-04T14:26:22;3.42;;;2.13;;
56997;SDS011;42890;44.244;22.530;2022-10-04T14:31:45;4.65;;;2.45;;
56997;SDS011;42890;44.244;22.530;2022-10-04T14:39:35;5.80;;;2.33;;
56997;SDS011;42890;44.244;22.530;2022-10-04T14:52:22;5.55;;;2.63;;
56997;SDS011;42890;44.244;22.530;2022-10-04T15:05:59;4.57;;;3.40;;
56997;SDS011;42890;44.244;22.530;2022-10-04T15:10:51;3.95;;;2.50;;
56997;SDS011;42890;44.244;22.530;2022-10-04T15:13:32;13.65;;;3.20;;
56997;SDS011;42890;44.244;22.530;2022-10-04T15:18:29;5.47;;;2.40;;
56997;SDS011;42890;44.244;22.530;2022-10-04T15:20:59;5.03;;;2.20;;
56997;SDS011;42890;44.244;22.530;2022-10-04T15:26:10;7.63;;;3.22;;
56997;SDS011;42890;44.244;22.530;2022-10-04T15:29:02;4.43;;;2.90;;
56997;SDS011;42890;44.244;22.530;2022-10-04T15:38:59;6.53;;;2.95;;
56997;SDS011;42890;44.244;22.530;2022-10-04T15:41:47;4.80;;;2.40;;
56997;SDS011;42890;44.244;22.530;2022-10-04T15:46:49;4.75;;;2.42;;
56997;SDS011;42890;44.244;22.530;2022-10-04T15:49:28;3.97;;;2.55;;
56997;SDS011;42890;44.244;22.530;2022-10-04T15:59:57;5.65;;;3.00;;
56997;SDS011;42890;44.244;22.530;2022-10-04T16:08:12;4.55;;;2.40;;
56997;SDS011;42890;44.244;22.530;2022-10-04T16:13:44;6.00;;;2.83;;
56997;SDS011;42890;44.244;22.530;2022-10-04T16:21:30;5.97;;;3.03;;
56997;SDS011;42890;44.244;22.530;2022-10-04T16:42:26;1.38;;;1.27;;
56997;SDS011;42890;44.244;22.530;2022-10-04T16:44:55;1.60;;;1.35;;
56997;SDS011;42890;44.244;22.530;2022-10-04T16:50:11;5.90;;;4.38;;
56997;SDS011;42890;44.244;22.530;2022-10-04T16:52:41;5.38;;;3.55;;
56997;SDS011;42890;44.244;22.530;2022-10-04T16:55:17;2.60;;;1.70;;
56997;SDS011;42890;44.244;22.530;2022-10-04T17:00:31;3.22;;;1.38;;
56997;SDS011;42890;44.244;22.530;2022-10-04T17:05:34;2.35;;;1.30;;
56997;SDS011;42890;44.244;22.530;2022-10-04T17:13:06;2.55;;;1.80;;
56997;SDS011;42890;44.244;22.530;2022-10-04T17:18:17;5.55;;;2.85;;
56997;SDS011;42890;44.244;22.530;2022-10-04T17:20:53;4.00;;;2.53;;
56997;SDS011;42890;44.244;22.530;2022-10-04T17:26:02;3.35;;;1.52;;
56997;SDS011;42890;44.244;22.530;2022-10-04T17:30:59;1.67;;;1.58;;
56997;SDS011;42890;44.244;22.530;2022-10-04T17:35:57;1.83;;;1.38;;
56997;SDS011;42890;44.244;22.530;2022-10-04T17:38:26;3.03;;;1.73;;
56997;SDS011;42890;44.244;22.530;2022-10-04T17:43:36;2.78;;;2.28;;
56997;SDS011;42890;44.244;22.530;2022-10-04T17:46:19;2.35;;;1.80;;
56997;SDS011;42890;44.244;22.530;2022-10-04T17:52:15;3.78;;;2.00;;
56997;SDS011;42890;44.244;22.530;2022-10-04T17:55:04;4.47;;;3.20;;
56997;SDS011;42890;44.244;22.530;2022-10-04T17:57:42;6.13;;;2.30;;
56997;SDS011;42890;44.244;22.530;2022-10-04T18:00:12;3.10;;;1.88;;
56997;SDS011;42890;44.244;22.530;2022-10-04T18:05:26;2.70;;;1.80;;
56997;SDS011;42890;44.244;22.530;2022-10-04T18:08:02;3.00;;;1.90;;
56997;SDS011;42890;44.244;22.530;2022-10-04T18:10:46;3.35;;;1.85;;
56997;SDS011;42890;44.244;22.530;2022-10-04T18:15:53;1.92;;;1.60;;
56997;SDS011;42890;44.244;22.530;2022-10-04T18:18:26;4.63;;;2.58;;
56997;SDS011;42890;44.244;22.530;2022-10-04T18:23:22;2.80;;;2.45;;
56997;SDS011;42890;44.244;22.530;2022-10-04T18:25:50;4.13;;;2.10;;
56997;SDS011;42890;44.244;22.530;2022-10-04T18:28:19;1.80;;;1.70;;
56997;SDS011;42890;44.244;22.530;2022-10-04T18:33:16;3.63;;;1.80;;
56997;SDS011;42890;44.244;22.530;2022-10-04T18:35:58;2.53;;;1.80;;
56997;SDS011;42890;44.244;22.530;2022-10-04T18:38:28;3.00;;;1.88;;
56997;SDS011;42890;44.244;22.530;2022-10-04T18:40:57;1.73;;;1.48;;
56997;SDS011;42890;44.244;22.530;2022-10-04T18:43:25;2.60;;;1.60;;
56997;SDS011;42890;44.244;22.530;2022-10-04T18:46:12;2.90;;;1.73;;
56997;SDS011;42890;44.244;22.530;2022-10-04T18:48:42;3.08;;;1.65;;
56997;SDS011;42890;44.244;22.530;2022-10-04T18:56:24;3.38;;;1.60;;
56997;SDS011;42890;44.244;22.530;2022-10-04T18:59:00;1.95;;;1.80;;
56997;SDS011;42890;44.244;22.530;2022-10-04T19:07:26;4.80;;;2.10;;
56997;SDS011;42890;44.244;22.530;2022-10-04T19:10:00;3.30;;;1.95;;
56997;SDS011;42890;44.244;22.530;2022-10-04T19:25:42;4.40;;;1.80;;
56997;SDS011;42890;44.244;22.530;2022-10-04T19:33:36;2.83;;;1.95;;
56997;SDS011;42890;44.244;22.530;2022-10-04T19:36:15;3.67;;;1.93;;
56997;SDS011;42890;44.244;22.530;2022-10-04T19:44:33;2.97;;;2.38;;
56997;SDS011;42890;44.244;22.530;2022-10-04T19:47:01;6.85;;;2.55;;
56997;SDS011;42890;44.244;22.530;2022-10-04T19:49:36;3.60;;;2.00;;
56997;SDS011;42890;44.244;22.530;2022-10-04T19:54:40;3.50;;;2.20;;
56997;SDS011;42890;44.244;22.530;2022-10-04T19:57:12;3.05;;;2.03;;
56997;SDS011;42890;44.244;22.530;2022-10-04T19:59:39;3.38;;;1.85;;
56997;SDS011;42890;44.244;22.530;2022-10-04T20:02:09;5.55;;;2.03;;
56997;SDS011;42890;44.244;22.530;2022-10-04T20:04:37;4.32;;;2.05;;
56997;SDS011;42890;44.244;22.530;2022-10-04T20:07:06;3.20;;;1.92;;
56997;SDS011;42890;44.244;22.530;2022-10-04T20:17:39;2.08;;;1.70;;
56997;SDS011;42890;44.244;22.530;2022-10-04T20:20:06;2.78;;;2.10;;
56997;SDS011;42890;44.244;22.530;2022-10-04T20:23:14;2.90;;;2.20;;
56997;SDS011;42890;44.244;22.530;2022-10-04T20:28:06;5.82;;;2.05;;
56997;SDS011;42890;44.244;22.530;2022-10-04T20:30:49;4.95;;;2.35;;
56997;SDS011;42890;44.244;22.530;2022-10-04T20:36:09;3.67;;;2.50;;
56997;SDS011;42890;44.244;22.530;2022-10-04T20:38:44;2.65;;;1.73;;
56997;SDS011;42890;44.244;22.530;2022-10-04T20:46:58;9.13;;;5.35;;
56997;SDS011;42890;44.244;22.530;2022-10-04T20:49:24;3.70;;;2.60;;
56997;SDS011;42890;44.244;22.530;2022-10-04T20:51:51;2.95;;;2.30;;
56997;SDS011;42890;44.244;22.530;2022-10-04T20:54:18;3.17;;;2.25;;
56997;SDS011;42890;44.244;22.530;2022-10-04T20:56:45;2.92;;;2.28;;
56997;SDS011;42890;44.244;22.530;2022-10-04T20:59:12;6.07;;;2.85;;
56997;SDS011;42890;44.244;22.530;2022-10-04T21:01:39;3.20;;;2.50;;
56997;SDS011;42890;44.244;22.530;2022-10-04T21:04:20;3.70;;;2.45;;
56997;SDS011;42890;44.244;22.530;2022-10-04T21:06:58;8.68;;;7.25;;
56997;SDS011;42890;44.244;22.530;2022-10-04T21:09:25;14.57;;;9.85;;
56997;SDS011;42890;44.244;22.530;2022-10-04T21:11:53;17.05;;;11.55;;
56997;SDS011;42890;44.244;22.530;2022-10-04T21:14:25;17.58;;;11.77;;
56997;SDS011;42890;44.244;22.530;2022-10-04T21:16:52;28.17;;;19.63;;
56997;SDS011;42890;44.244;22.530;2022-10-04T21:24:37;145.07;;;83.68;;
56997;SDS011;42890;44.244;22.530;2022-10-04T21:27:04;57.25;;;40.83;;
56997;SDS011;42890;44.244;22.530;2022-10-04T21:29:32;35.30;;;26.52;;
56997;SDS011;42890;44.244;22.530;2022-10-04T21:31:58;30.17;;;23.80;;
56997;SDS011;42890;44.244;22.530;2022-10-04T21:34:24;25.48;;;19.35;;
56997;SDS011;42890;44.244;22.530;2022-10-04T21:36:51;7.60;;;4.70;;
56997;SDS011;42890;44.244;22.530;2022-10-04T21:39:17;6.57;;;2.75;;
56997;SDS011;42890;44.244;22.530;2022-10-04T21:41:43;4.05;;;3.13;;
56997;SDS011;42890;44.244;22.530;2022-10-04T21:44:10;5.80;;;3.10;;
56997;SDS011;42890;44.244;22.530;2022-10-04T21:46:36;4.47;;;3.50;;
56997;SDS011;42890;44.244;22.530;2022-10-04T21:49:03;6.82;;;3.00;;
56997;SDS011;42890;44.244;22.530;2022-10-04T21:51:29;7.05;;;3.28;;
56997;SDS011;42890;44.244;22.530;2022-10-04T21:54:04;4.82;;;2.35;;
56997;SDS011;42890;44.244;22.530;2022-10-04T21:56:31;3.67;;;3.00;;
56997;SDS011;42890;44.244;22.530;2022-10-04T21:58:57;2.60;;;2.30;;
56997;SDS011;42890;44.244;22.530;2022-10-04T22:01:23;4.30;;;2.70;;
56997;SDS011;42890;44.244;22.530;2022-10-04T22:03:49;7.95;;;7.13;;
56997;SDS011;42890;44.244;22.530;2022-10-04T22:06:16;20.63;;;18.27;;
56997;SDS011;42890;44.244;22.530;2022-10-04T22:08:43;10.45;;;8.10;;
56997;SDS011;42890;44.244;22.530;2022-10-04T22:11:09;16.33;;;14.63;;
56997;SDS011;42890;44.244;22.530;2022-10-04T22:13:35;33.55;;;25.63;;
56997;SDS011;42890;44.244;22.530;2022-10-04T22:16:02;38.72;;;34.53;;
56997;SDS011;42890;44.244;22.530;2022-10-04T22:18:28;42.72;;;38.25;;
56997;SDS011;42890;44.244;22.530;2022-10-04T22:20:55;36.72;;;31.08;;
56997;SDS011;42890;44.244;22.530;2022-10-04T22:23:25;24.88;;;20.23;;
56997;SDS011;42890;44.244;22.530;2022-10-04T22:25:52;21.67;;;15.45;;
56997;SDS011;42890;44.244;22.530;2022-10-04T22:28:22;17.90;;;14.07;;
56997;SDS011;42890;44.244;22.530;2022-10-04T22:30:49;15.48;;;11.82;;
56997;SDS011;42890;44.244;22.530;2022-10-04T22:35:48;6.20;;;5.00;;
56997;SDS011;42890;44.244;22.530;2022-10-04T22:38:14;5.88;;;4.20;;
56997;SDS011;42890;44.244;22.530;2022-10-04T22:40:40;4.57;;;3.75;;
56997;SDS011;42890;44.244;22.530;2022-10-04T22:43:09;5.95;;;3.90;;
56997;SDS011;42890;44.244;22.530;2022-10-04T22:45:36;7.53;;;4.78;;
56997;SDS011;42890;44.244;22.530;2022-10-04T22:48:06;10.50;;;8.88;;
56997;SDS011;42890;44.244;22.530;2022-10-04T22:50:35;13.85;;;8.98;;
56997;SDS011;42890;44.244;22.530;2022-10-04T22:53:03;19.20;;;17.42;;
56997;SDS011;42890;44.244;22.530;2022-10-04T22:55:29;20.38;;;18.38;;
56997;SDS011;42890;44.244;22.530;2022-10-04T22:57:56;21.35;;;19.30;;
56997;SDS011;42890;44.244;22.530;2022-10-04T23:00:22;16.67;;;14.80;;
56997;SDS011;42890;44.244;22.530;2022-10-04T23:02:48;22.40;;;20.00;;
56997;SDS011;42890;44.244;22.530;2022-10-04T23:05:15;22.42;;;19.13;;
56997;SDS011;42890;44.244;22.530;2022-10-04T23:07:43;7.57;;;5.95;;
56997;SDS011;42890;44.244;22.530;2022-10-04T23:10:09;5.68;;;4.25;;
56997;SDS011;42890;44.244;22.530;2022-10-04T23:12:36;5.07;;;4.30;;
56997;SDS011;42890;44.244;22.530;2022-10-04T23:15:04;5.22;;;4.50;;
56997;SDS011;42890;44.244;22.530;2022-10-04T23:17:34;12.38;;;9.18;;
56997;SDS011;42890;44.244;22.530;2022-10-04T23:20:11;7.85;;;4.65;;
56997;SDS011;42890;44.244;22.530;2022-10-04T23:22:38;7.68;;;5.10;;
56997;SDS011;42890;44.244;22.530;2022-10-04T23:25:11;8.13;;;5.38;;
56997;SDS011;42890;44.244;22.530;2022-10-04T23:27:38;10.82;;;8.02;;
56997;SDS011;42890;44.244;22.530;2022-10-04T23:30:05;12.07;;;8.43;;
56997;SDS011;42890;44.244;22.530;2022-10-04T23:32:31;14.95;;;9.27;;
56997;SDS011;42890;44.244;22.530;2022-10-04T23:34:57;11.25;;;8.30;;
56997;SDS011;42890;44.244;22.530;2022-10-04T23:37:26;11.93;;;8.00;;
56997;SDS011;42890;44.244;22.530;2022-10-04T23:39:52;5.40;;;4.13;;
56997;SDS011;42890;44.244;22.530;2022-10-04T23:42:22;4.20;;;3.22;;
56997;SDS011;42890;44.244;22.530;2022-10-04T23:44:53;4.20;;;3.25;;
56997;SDS011;42890;44.244;22.530;2022-10-04T23:47:20;4.75;;;3.28;;
56997;SDS011;42890;44.244;22.530;2022-10-04T23:49:47;4.47;;;3.25;;
56997;SDS011;42890;44.244;22.530;2022-10-04T23:52:24;5.05;;;3.28;;
56997;SDS011;42890;44.244;22.530;2022-10-04T23:54:51;6.57;;;3.28;;
56997;SDS011;42890;44.244;22.530;2022-10-04T23:57:24;4.30;;;3.28;;
56997;SDS011;42890;44.244;22.530;2022-10-04T23:59:51;3.50;;;2.83;;
